sensor_id;sensor_type;location;lat;lon;timestamp;pressure;altitude;pressure_sealevel;temperature;humidity
28606;BME280;46498;49.968;7.754;2023-03-19T00:04:46;96763.00;;;10.56;84.90
28606;BME280;46498;49.968;7.754;2023-03-19T00:09:47;96757.00;;;10.64;84.49
28606;BME280;46498;49.968;7.754;2023-03-19T00:14:48;96761.00;;;10.65;84.19
28606;BME280;46498;49.968;7.754;2023-03-19T00:19:50;96761.00;;;10.56;84.82
28606;BME280;46498;49.968;7.754;2023-03-19T00:24:50;96771.00;;;10.45;87.08
28606;BME280;46498;49.968;7.754;2023-03-19T00:29:52;96762.00;;;10.48;88.03
28606;BME280;46498;49.968;7.754;2023-03-19T00:34:52;96770.00;;;10.41;89.02
28606;BME280;46498;49.968;7.754;2023-03-19T00:39:53;96778.00;;;10.30;89.85
28606;BME280;46498;49.968;7.754;2023-03-19T00:44:54;96772.00;;;10.39;88.78
28606;BME280;46498;49.968;7.754;2023-03-19T00:49:55;96766.00;;;10.37;88.53
28606;BME280;46498;49.968;7.754;2023-03-19T00:54:56;96771.00;;;10.47;87.48
28606;BME280;46498;49.968;7.754;2023-03-19T00:59:57;96766.00;;;10.49;87.57
28606;BME280;46498;49.968;7.754;2023-03-19T01:04:58;96765.00;;;10.49;88.21
28606;BME280;46498;49.968;7.754;2023-03-19T01:09:59;96764.00;;;10.43;89.11
28606;BME280;46498;49.968;7.754;2023-03-19T01:15:02;96764.00;;;10.35;89.95
28606;BME280;46498;49.968;7.754;2023-03-19T01:20:05;96764.00;;;10.25;91.10
28606;BME280;46498;49.968;7.754;2023-03-19T01:25:13;96771.00;;;10.22;91.63
28606;BME280;46498;49.968;7.754;2023-03-19T01:30:20;96768.00;;;10.45;89.37
28606;BME280;46498;49.968;7.754;2023-03-19T01:36:42;96774.00;;;10.46;89.58
28606;BME280;46498;49.968;7.754;2023-03-19T01:41:45;96770.00;;;10.43;89.03
28606;BME280;46498;49.968;7.754;2023-03-19T01:47:35;96781.00;;;10.45;88.45
28606;BME280;46498;49.968;7.754;2023-03-19T01:53:38;96777.00;;;10.58;87.67
28606;BME280;46498;49.968;7.754;2023-03-19T01:58:52;96777.00;;;10.54;87.83
28606;BME280;46498;49.968;7.754;2023-03-19T02:04:17;96777.00;;;10.61;87.56
28606;BME280;46498;49.968;7.754;2023-03-19T02:09:19;96772.00;;;10.55;88.04
28606;BME280;46498;49.968;7.754;2023-03-19T02:14:20;96770.00;;;10.48;88.45
28606;BME280;46498;49.968;7.754;2023-03-19T02:21:06;96772.00;;;10.51;88.74
28606;BME280;46498;49.968;7.754;2023-03-19T02:26:09;96766.00;;;10.49;88.80
28606;BME280;46498;49.968;7.754;2023-03-19T02:31:12;96769.00;;;10.49;88.40
28606;BME280;46498;49.968;7.754;2023-03-19T02:36:15;96771.00;;;10.56;88.02
28606;BME280;46498;49.968;7.754;2023-03-19T02:41:18;96773.00;;;10.34;89.71
28606;BME280;46498;49.968;7.754;2023-03-19T02:46:19;96775.00;;;10.17;90.82
28606;BME280;46498;49.968;7.754;2023-03-19T02:51:20;96779.00;;;10.06;91.81
28606;BME280;46498;49.968;7.754;2023-03-19T02:56:21;96780.00;;;10.14;90.78
28606;BME280;46498;49.968;7.754;2023-03-19T03:01:22;96782.00;;;9.96;91.71
28606;BME280;46498;49.968;7.754;2023-03-19T03:06:26;96772.00;;;9.88;91.64
28606;BME280;46498;49.968;7.754;2023-03-19T03:11:27;96775.00;;;9.62;92.31
28606;BME280;46498;49.968;7.754;2023-03-19T03:16:28;96774.00;;;9.37;93.30
28606;BME280;46498;49.968;7.754;2023-03-19T03:21:29;96768.00;;;9.17;94.65
28606;BME280;46498;49.968;7.754;2023-03-19T03:26:30;96773.00;;;8.98;95.77
28606;BME280;46498;49.968;7.754;2023-03-19T03:31:32;96777.00;;;8.84;96.45
28606;BME280;46498;49.968;7.754;2023-03-19T03:36:33;96776.00;;;8.65;97.49
28606;BME280;46498;49.968;7.754;2023-03-19T03:41:34;96782.00;;;8.51;98.21
28606;BME280;46498;49.968;7.754;2023-03-19T03:46:36;96770.00;;;8.38;99.60
28606;BME280;46498;49.968;7.754;2023-03-19T03:51:37;96774.00;;;8.37;100.00
28606;BME280;46498;49.968;7.754;2023-03-19T03:56:38;96784.00;;;8.37;100.00
28606;BME280;46498;49.968;7.754;2023-03-19T04:01:39;96783.00;;;8.28;100.00
28606;BME280;46498;49.968;7.754;2023-03-19T04:06:40;96792.00;;;8.22;100.00
28606;BME280;46498;49.968;7.754;2023-03-19T04:11:48;96787.00;;;8.32;100.00
28606;BME280;46498;49.968;7.754;2023-03-19T04:16:51;96794.00;;;8.32;100.00
28606;BME280;46498;49.968;7.754;2023-03-19T04:21:52;96794.00;;;8.08;100.00
28606;BME280;46498;49.968;7.754;2023-03-19T04:26:54;96801.00;;;7.83;100.00
28606;BME280;46498;49.968;7.754;2023-03-19T04:31:55;96805.00;;;7.66;100.00
28606;BME280;46498;49.968;7.754;2023-03-19T04:36:57;96811.00;;;7.92;100.00
28606;BME280;46498;49.968;7.754;2023-03-19T04:41:58;96806.00;;;8.10;100.00
28606;BME280;46498;49.968;7.754;2023-03-19T04:47:09;96799.00;;;8.26;100.00
28606;BME280;46498;49.968;7.754;2023-03-19T04:52:20;96792.00;;;8.43;100.00
28606;BME280;46498;49.968;7.754;2023-03-19T04:57:22;96799.00;;;8.46;100.00
28606;BME280;46498;49.968;7.754;2023-03-19T05:02:23;96808.00;;;8.43;100.00
28606;BME280;46498;49.968;7.754;2023-03-19T05:07:25;96812.00;;;8.37;100.00
28606;BME280;46498;49.968;7.754;2023-03-19T05:12:27;96818.00;;;8.21;100.00
28606;BME280;46498;49.968;7.754;2023-03-19T05:17:32;96815.00;;;7.92;100.00
28606;BME280;46498;49.968;7.754;2023-03-19T05:22:55;96826.00;;;7.73;100.00
28606;BME280;46498;49.968;7.754;2023-03-19T05:28:04;96834.00;;;7.55;100.00
28606;BME280;46498;49.968;7.754;2023-03-19T05:33:05;96822.00;;;7.44;100.00
28606;BME280;46498;49.968;7.754;2023-03-19T05:38:13;96824.00;;;7.26;100.00
28606;BME280;46498;49.968;7.754;2023-03-19T05:43:15;96815.00;;;7.46;100.00
28606;BME280;46498;49.968;7.754;2023-03-19T05:48:17;96829.00;;;7.92;100.00
28606;BME280;46498;49.968;7.754;2023-03-19T05:53:18;96833.00;;;8.03;100.00
28606;BME280;46498;49.968;7.754;2023-03-19T05:58:33;96828.00;;;8.11;100.00
28606;BME280;46498;49.968;7.754;2023-03-19T06:03:34;96822.00;;;8.17;100.00
28606;BME280;46498;49.968;7.754;2023-03-19T06:08:40;96830.00;;;8.20;100.00
28606;BME280;46498;49.968;7.754;2023-03-19T06:14:28;96830.00;;;8.35;100.00
28606;BME280;46498;49.968;7.754;2023-03-19T06:19:48;96837.00;;;8.42;100.00
28606;BME280;46498;49.968;7.754;2023-03-19T06:24:49;96845.00;;;8.51;100.00
28606;BME280;46498;49.968;7.754;2023-03-19T06:29:50;96846.00;;;8.71;100.00
28606;BME280;46498;49.968;7.754;2023-03-19T06:34:59;96847.00;;;8.65;100.00
28606;BME280;46498;49.968;7.754;2023-03-19T06:40:00;96859.00;;;8.67;100.00
28606;BME280;46498;49.968;7.754;2023-03-19T06:45:01;96862.00;;;8.50;100.00
28606;BME280;46498;49.968;7.754;2023-03-19T06:50:02;96862.00;;;8.22;100.00
28606;BME280;46498;49.968;7.754;2023-03-19T06:55:05;96864.00;;;8.27;100.00
28606;BME280;46498;49.968;7.754;2023-03-19T07:00:07;96877.00;;;8.26;100.00
28606;BME280;46498;49.968;7.754;2023-03-19T07:05:11;96875.00;;;7.99;100.00
28606;BME280;46498;49.968;7.754;2023-03-19T07:10:11;96882.00;;;8.24;100.00
28606;BME280;46498;49.968;7.754;2023-03-19T07:15:13;96882.00;;;8.26;100.00
28606;BME280;46498;49.968;7.754;2023-03-19T07:20:15;96884.00;;;8.38;100.00
28606;BME280;46498;49.968;7.754;2023-03-19T07:25:16;96897.00;;;8.49;100.00
28606;BME280;46498;49.968;7.754;2023-03-19T07:30:17;96891.00;;;8.62;100.00
28606;BME280;46498;49.968;7.754;2023-03-19T07:35:18;96896.00;;;8.68;100.00
28606;BME280;46498;49.968;7.754;2023-03-19T07:40:20;96902.00;;;9.05;100.00
28606;BME280;46498;49.968;7.754;2023-03-19T07:45:22;96912.00;;;9.15;100.00
28606;BME280;46498;49.968;7.754;2023-03-19T07:50:23;96914.00;;;9.36;100.00
28606;BME280;46498;49.968;7.754;2023-03-19T07:55:24;96906.00;;;9.31;100.00
28606;BME280;46498;49.968;7.754;2023-03-19T08:00:25;96909.00;;;9.36;100.00
28606;BME280;46498;49.968;7.754;2023-03-19T08:05:26;96917.00;;;9.46;100.00
28606;BME280;46498;49.968;7.754;2023-03-19T08:10:27;96925.00;;;9.31;100.00
28606;BME280;46498;49.968;7.754;2023-03-19T08:15:28;96912.00;;;9.28;100.00
28606;BME280;46498;49.968;7.754;2023-03-19T08:20:29;96912.00;;;9.28;100.00
28606;BME280;46498;49.968;7.754;2023-03-19T08:25:31;96912.00;;;9.36;100.00
28606;BME280;46498;49.968;7.754;2023-03-19T08:30:32;96925.00;;;9.41;100.00
28606;BME280;46498;49.968;7.754;2023-03-19T08:35:33;96921.00;;;9.60;100.00
28606;BME280;46498;49.968;7.754;2023-03-19T08:40:34;96910.00;;;9.78;100.00
28606;BME280;46498;49.968;7.754;2023-03-19T08:45:36;96921.00;;;9.98;100.00
28606;BME280;46498;49.968;7.754;2023-03-19T08:50:36;96927.00;;;9.92;100.00
28606;BME280;46498;49.968;7.754;2023-03-19T08:55:37;96933.00;;;10.02;100.00
28606;BME280;46498;49.968;7.754;2023-03-19T09:00:38;96930.00;;;9.95;100.00
28606;BME280;46498;49.968;7.754;2023-03-19T09:05:39;96930.00;;;10.11;100.00
28606;BME280;46498;49.968;7.754;2023-03-19T09:10:40;96926.00;;;10.16;100.00
28606;BME280;46498;49.968;7.754;2023-03-19T09:15:41;96931.00;;;10.11;100.00
28606;BME280;46498;49.968;7.754;2023-03-19T09:20:42;96938.00;;;10.18;100.00
28606;BME280;46498;49.968;7.754;2023-03-19T09:25:43;96958.00;;;10.32;100.00
28606;BME280;46498;49.968;7.754;2023-03-19T09:30:45;96952.00;;;10.48;98.28
28606;BME280;46498;49.968;7.754;2023-03-19T09:35:48;96956.00;;;10.45;97.94
28606;BME280;46498;49.968;7.754;2023-03-19T09:49:45;96961.00;;;10.31;100.00
28606;BME280;46498;49.968;7.754;2023-03-19T09:54:50;96967.00;;;10.50;100.00
28606;BME280;46498;49.968;7.754;2023-03-19T09:59:52;96963.00;;;11.06;100.00
28606;BME280;46498;49.968;7.754;2023-03-19T10:16:53;96961.00;;;10.87;99.45
28606;BME280;46498;49.968;7.754;2023-03-19T10:22:01;96970.00;;;11.17;100.00
28606;BME280;46498;49.968;7.754;2023-03-19T10:27:12;96973.00;;;11.25;96.94
28606;BME280;46498;49.968;7.754;2023-03-19T10:32:40;96967.00;;;11.08;94.80
28606;BME280;46498;49.968;7.754;2023-03-19T10:37:41;96978.00;;;10.98;96.37
28606;BME280;46498;49.968;7.754;2023-03-19T10:44:36;96987.00;;;10.70;97.66
28606;BME280;46498;49.968;7.754;2023-03-19T10:49:38;96998.00;;;10.35;100.00
28606;BME280;46498;49.968;7.754;2023-03-19T10:54:42;97012.00;;;10.07;100.00
28606;BME280;46498;49.968;7.754;2023-03-19T10:59:44;97007.00;;;9.61;100.00
28606;BME280;46498;49.968;7.754;2023-03-19T11:04:47;97002.00;;;9.45;100.00
28606;BME280;46498;49.968;7.754;2023-03-19T11:09:49;96999.00;;;9.52;100.00
28606;BME280;46498;49.968;7.754;2023-03-19T11:14:52;97002.00;;;9.70;100.00
28606;BME280;46498;49.968;7.754;2023-03-19T11:19:57;96996.00;;;9.78;100.00
28606;BME280;46498;49.968;7.754;2023-03-19T11:25:00;97007.00;;;9.85;100.00
28606;BME280;46498;49.968;7.754;2023-03-19T11:30:06;97000.00;;;9.89;100.00
28606;BME280;46498;49.968;7.754;2023-03-19T11:35:24;97013.00;;;9.96;100.00
28606;BME280;46498;49.968;7.754;2023-03-19T11:41:00;97013.00;;;9.82;100.00
28606;BME280;46498;49.968;7.754;2023-03-19T11:46:18;97008.00;;;9.61;100.00
28606;BME280;46498;49.968;7.754;2023-03-19T11:51:48;97011.00;;;9.47;100.00
28606;BME280;46498;49.968;7.754;2023-03-19T11:57:08;97007.00;;;9.41;100.00
28606;BME280;46498;49.968;7.754;2023-03-19T12:12:37;97005.00;;;9.28;100.00
28606;BME280;46498;49.968;7.754;2023-03-19T12:17:57;97000.00;;;9.23;100.00
28606;BME280;46498;49.968;7.754;2023-03-19T12:23:31;96996.00;;;9.36;100.00
28606;BME280;46498;49.968;7.754;2023-03-19T12:28:45;96991.00;;;9.43;100.00
28606;BME280;46498;49.968;7.754;2023-03-19T12:41:06;96990.00;;;10.11;100.00
28606;BME280;46498;49.968;7.754;2023-03-19T12:46:19;96992.00;;;11.07;100.00
28606;BME280;46498;49.968;7.754;2023-03-19T12:51:25;96999.00;;;11.41;100.00
28606;BME280;46498;49.968;7.754;2023-03-19T12:57:03;96996.00;;;10.97;100.00
28606;BME280;46498;49.968;7.754;2023-03-19T13:04:01;96992.00;;;10.49;100.00
28606;BME280;46498;49.968;7.754;2023-03-19T13:09:31;96995.00;;;10.25;100.00
28606;BME280;46498;49.968;7.754;2023-03-19T13:14:42;96991.00;;;10.20;100.00
28606;BME280;46498;49.968;7.754;2023-03-19T13:19:51;96982.00;;;10.22;100.00
28606;BME280;46498;49.968;7.754;2023-03-19T13:24:54;96971.00;;;10.23;100.00
28606;BME280;46498;49.968;7.754;2023-03-19T13:30:15;96970.00;;;10.33;100.00
28606;BME280;46498;49.968;7.754;2023-03-19T13:35:35;96973.00;;;10.53;100.00
28606;BME280;46498;49.968;7.754;2023-03-19T13:40:52;96969.00;;;10.92;100.00
28606;BME280;46498;49.968;7.754;2023-03-19T13:46:54;96955.00;;;10.32;100.00
28606;BME280;46498;49.968;7.754;2023-03-19T13:59:42;96961.00;;;10.04;100.00
28606;BME280;46498;49.968;7.754;2023-03-19T14:04:49;96963.00;;;10.32;100.00
28606;BME280;46498;49.968;7.754;2023-03-19T14:10:27;96956.00;;;10.21;100.00
28606;BME280;46498;49.968;7.754;2023-03-19T14:15:28;96963.00;;;10.25;100.00
28606;BME280;46498;49.968;7.754;2023-03-19T14:20:43;96950.00;;;10.09;100.00
28606;BME280;46498;49.968;7.754;2023-03-19T14:26:00;96954.00;;;10.09;100.00
28606;BME280;46498;49.968;7.754;2023-03-19T14:31:02;96956.00;;;9.94;100.00
28606;BME280;46498;49.968;7.754;2023-03-19T14:36:05;96955.00;;;10.02;100.00
28606;BME280;46498;49.968;7.754;2023-03-19T14:41:14;96955.00;;;10.15;100.00
28606;BME280;46498;49.968;7.754;2023-03-19T14:46:30;96957.00;;;10.27;100.00
28606;BME280;46498;49.968;7.754;2023-03-19T14:59:35;96953.00;;;11.05;100.00
28606;BME280;46498;49.968;7.754;2023-03-19T15:04:36;96956.00;;;11.52;100.00
28606;BME280;46498;49.968;7.754;2023-03-19T15:09:37;96961.00;;;11.35;100.00
28606;BME280;46498;49.968;7.754;2023-03-19T15:15:23;96957.00;;;11.03;100.00
28606;BME280;46498;49.968;7.754;2023-03-19T15:20:35;96944.00;;;10.90;100.00
28606;BME280;46498;49.968;7.754;2023-03-19T15:25:54;96951.00;;;10.86;100.00
28606;BME280;46498;49.968;7.754;2023-03-19T15:31:04;96949.00;;;10.95;100.00
28606;BME280;46498;49.968;7.754;2023-03-19T15:36:31;96949.00;;;11.16;100.00
28606;BME280;46498;49.968;7.754;2023-03-19T15:41:37;96958.00;;;11.27;100.00
28606;BME280;46498;49.968;7.754;2023-03-19T15:46:40;96957.00;;;11.09;100.00
28606;BME280;46498;49.968;7.754;2023-03-19T15:51:43;96952.00;;;11.11;100.00
28606;BME280;46498;49.968;7.754;2023-03-19T15:56:51;96947.00;;;11.10;100.00
28606;BME280;46498;49.968;7.754;2023-03-19T16:01:57;96955.00;;;11.22;100.00
28606;BME280;46498;49.968;7.754;2023-03-19T16:06:59;96960.00;;;11.14;100.00
28606;BME280;46498;49.968;7.754;2023-03-19T16:12:01;96956.00;;;11.29;100.00
28606;BME280;46498;49.968;7.754;2023-03-19T16:17:12;96968.00;;;11.07;100.00
28606;BME280;46498;49.968;7.754;2023-03-19T16:22:16;96971.00;;;11.02;100.00
28606;BME280;46498;49.968;7.754;2023-03-19T16:27:29;96975.00;;;10.98;100.00
28606;BME280;46498;49.968;7.754;2023-03-19T16:32:34;96977.00;;;10.88;100.00
28606;BME280;46498;49.968;7.754;2023-03-19T16:38:11;96982.00;;;10.79;100.00
28606;BME280;46498;49.968;7.754;2023-03-19T16:43:22;96983.00;;;10.91;100.00
28606;BME280;46498;49.968;7.754;2023-03-19T16:48:24;96986.00;;;10.94;100.00
28606;BME280;46498;49.968;7.754;2023-03-19T16:53:28;96999.00;;;11.10;100.00
28606;BME280;46498;49.968;7.754;2023-03-19T16:58:39;97007.00;;;11.20;100.00
28606;BME280;46498;49.968;7.754;2023-03-19T17:03:43;97013.00;;;11.15;100.00
28606;BME280;46498;49.968;7.754;2023-03-19T17:08:45;97014.00;;;11.01;100.00
28606;BME280;46498;49.968;7.754;2023-03-19T17:13:45;97022.00;;;10.93;100.00
28606;BME280;46498;49.968;7.754;2023-03-19T17:18:47;97025.00;;;10.79;100.00
28606;BME280;46498;49.968;7.754;2023-03-19T17:23:48;97030.00;;;10.71;100.00
28606;BME280;46498;49.968;7.754;2023-03-19T17:28:51;97033.00;;;10.63;100.00
28606;BME280;46498;49.968;7.754;2023-03-19T17:34:01;97039.00;;;10.55;100.00
28606;BME280;46498;49.968;7.754;2023-03-19T17:39:04;97054.00;;;10.33;100.00
28606;BME280;46498;49.968;7.754;2023-03-19T17:44:05;97054.00;;;10.12;100.00
28606;BME280;46498;49.968;7.754;2023-03-19T17:49:40;97055.00;;;10.05;100.00
28606;BME280;46498;49.968;7.754;2023-03-19T17:54:43;97052.00;;;9.97;100.00
28606;BME280;46498;49.968;7.754;2023-03-19T17:59:44;97052.00;;;9.95;100.00
28606;BME280;46498;49.968;7.754;2023-03-19T18:04:45;97061.00;;;9.83;100.00
28606;BME280;46498;49.968;7.754;2023-03-19T18:09:46;97057.00;;;9.77;100.00
28606;BME280;46498;49.968;7.754;2023-03-19T18:14:47;97062.00;;;9.61;100.00
28606;BME280;46498;49.968;7.754;2023-03-19T18:19:48;97062.00;;;9.45;100.00
28606;BME280;46498;49.968;7.754;2023-03-19T18:24:51;97060.00;;;9.37;100.00
28606;BME280;46498;49.968;7.754;2023-03-19T18:29:52;97063.00;;;9.18;100.00
28606;BME280;46498;49.968;7.754;2023-03-19T18:34:54;97069.00;;;9.08;100.00
28606;BME280;46498;49.968;7.754;2023-03-19T18:39:58;97061.00;;;8.80;100.00
28606;BME280;46498;49.968;7.754;2023-03-19T18:44:59;97060.00;;;8.62;100.00
28606;BME280;46498;49.968;7.754;2023-03-19T18:50:25;97066.00;;;8.57;100.00
28606;BME280;46498;49.968;7.754;2023-03-19T18:55:28;97087.00;;;8.46;100.00
28606;BME280;46498;49.968;7.754;2023-03-19T19:00:35;97090.00;;;8.08;100.00
28606;BME280;46498;49.968;7.754;2023-03-19T19:05:37;97098.00;;;7.94;100.00
28606;BME280;46498;49.968;7.754;2023-03-19T19:10:41;97118.00;;;7.87;100.00
28606;BME280;46498;49.968;7.754;2023-03-19T19:15:42;97118.00;;;7.76;100.00
28606;BME280;46498;49.968;7.754;2023-03-19T19:20:44;97133.00;;;7.68;100.00
28606;BME280;46498;49.968;7.754;2023-03-19T19:25:48;97130.00;;;7.71;100.00
28606;BME280;46498;49.968;7.754;2023-03-19T19:30:52;97137.00;;;7.69;100.00
28606;BME280;46498;49.968;7.754;2023-03-19T19:35:54;97149.00;;;7.62;100.00
28606;BME280;46498;49.968;7.754;2023-03-19T19:40:57;97152.00;;;7.64;100.00
28606;BME280;46498;49.968;7.754;2023-03-19T19:45:59;97159.00;;;7.50;100.00
28606;BME280;46498;49.968;7.754;2023-03-19T19:51:00;97157.00;;;7.43;100.00
28606;BME280;46498;49.968;7.754;2023-03-19T19:56:13;97153.00;;;7.25;100.00
28606;BME280;46498;49.968;7.754;2023-03-19T20:01:17;97163.00;;;7.17;100.00
28606;BME280;46498;49.968;7.754;2023-03-19T20:06:19;97165.00;;;7.24;100.00
28606;BME280;46498;49.968;7.754;2023-03-19T20:11:23;97163.00;;;7.35;100.00
28606;BME280;46498;49.968;7.754;2023-03-19T20:16:25;97169.00;;;7.45;100.00
28606;BME280;46498;49.968;7.754;2023-03-19T20:21:26;97176.00;;;7.47;100.00
28606;BME280;46498;49.968;7.754;2023-03-19T20:26:28;97180.00;;;7.54;100.00
28606;BME280;46498;49.968;7.754;2023-03-19T20:31:30;97185.00;;;7.61;100.00
28606;BME280;46498;49.968;7.754;2023-03-19T20:36:32;97195.00;;;7.71;100.00
28606;BME280;46498;49.968;7.754;2023-03-19T20:41:33;97193.00;;;7.56;100.00
28606;BME280;46498;49.968;7.754;2023-03-19T20:46:34;97191.00;;;7.69;100.00
28606;BME280;46498;49.968;7.754;2023-03-19T20:51:36;97202.00;;;7.75;100.00
28606;BME280;46498;49.968;7.754;2023-03-19T20:56:37;97203.00;;;7.85;100.00
28606;BME280;46498;49.968;7.754;2023-03-19T21:01:39;97210.00;;;8.00;100.00
28606;BME280;46498;49.968;7.754;2023-03-19T21:06:40;97213.00;;;8.09;100.00
28606;BME280;46498;49.968;7.754;2023-03-19T21:11:53;97213.00;;;8.17;100.00
28606;BME280;46498;49.968;7.754;2023-03-19T21:16:54;97227.00;;;8.27;100.00
28606;BME280;46498;49.968;7.754;2023-03-19T21:21:55;97223.00;;;8.41;100.00
28606;BME280;46498;49.968;7.754;2023-03-19T21:26:57;97232.00;;;8.52;100.00
28606;BME280;46498;49.968;7.754;2023-03-19T21:31:59;97233.00;;;8.72;100.00
28606;BME280;46498;49.968;7.754;2023-03-19T21:37:02;97244.00;;;8.68;100.00
28606;BME280;46498;49.968;7.754;2023-03-19T21:42:05;97228.00;;;8.70;100.00
28606;BME280;46498;49.968;7.754;2023-03-19T21:47:19;97232.00;;;8.73;100.00
28606;BME280;46498;49.968;7.754;2023-03-19T21:52:21;97230.00;;;8.68;100.00
28606;BME280;46498;49.968;7.754;2023-03-19T21:57:22;97239.00;;;8.75;100.00
28606;BME280;46498;49.968;7.754;2023-03-19T22:02:43;97240.00;;;8.64;100.00
28606;BME280;46498;49.968;7.754;2023-03-19T22:07:44;97237.00;;;8.57;100.00
28606;BME280;46498;49.968;7.754;2023-03-19T22:12:46;97237.00;;;8.55;100.00
28606;BME280;46498;49.968;7.754;2023-03-19T22:17:48;97229.00;;;8.53;100.00
28606;BME280;46498;49.968;7.754;2023-03-19T22:22:50;97229.00;;;8.58;100.00
28606;BME280;46498;49.968;7.754;2023-03-19T22:27:51;97238.00;;;8.63;100.00
28606;BME280;46498;49.968;7.754;2023-03-19T22:32:53;97239.00;;;8.72;100.00
28606;BME280;46498;49.968;7.754;2023-03-19T22:37:55;97237.00;;;8.76;100.00
28606;BME280;46498;49.968;7.754;2023-03-19T22:42:56;97241.00;;;8.80;100.00
28606;BME280;46498;49.968;7.754;2023-03-19T22:47:57;97244.00;;;8.73;100.00
28606;BME280;46498;49.968;7.754;2023-03-19T22:52:59;97238.00;;;8.65;100.00
28606;BME280;46498;49.968;7.754;2023-03-19T22:58:00;97233.00;;;8.63;100.00
28606;BME280;46498;49.968;7.754;2023-03-19T23:03:01;97234.00;;;8.53;100.00
28606;BME280;46498;49.968;7.754;2023-03-19T23:08:03;97233.00;;;8.51;100.00
28606;BME280;46498;49.968;7.754;2023-03-19T23:13:07;97233.00;;;8.40;100.00
28606;BME280;46498;49.968;7.754;2023-03-19T23:18:14;97238.00;;;8.35;100.00
28606;BME280;46498;49.968;7.754;2023-03-19T23:23:17;97249.00;;;8.51;100.00
28606;BME280;46498;49.968;7.754;2023-03-19T23:28:23;97249.00;;;8.42;100.00
28606;BME280;46498;49.968;7.754;2023-03-19T23:33:26;97242.00;;;8.46;100.00
28606;BME280;46498;49.968;7.754;2023-03-19T23:38:26;97250.00;;;8.34;100.00
28606;BME280;46498;49.968;7.754;2023-03-19T23:43:28;97248.00;;;8.31;100.00
28606;BME280;46498;49.968;7.754;2023-03-19T23:48:36;97254.00;;;8.22;100.00
28606;BME280;46498;49.968;7.754;2023-03-19T23:53:39;97255.00;;;8.14;100.00
28606;BME280;46498;49.968;7.754;2023-03-19T23:58:41;97252.00;;;8.14;100.00
